Aviation Digital Data Service (ADDS)

Output produced by METARs form (0118 UTC 29 November 2014)
found at http://aviationweather.gov/adds/metars/
 
KPHX 282330Z 2900/2924 VRB03KT P6SM SKC 
     FM290400 10007KT P6SM SKC 
     FM292200 VRB03KT P6SM FEW250